Time;durP1;ratioP1;P1;durP2;ratioP2;P2;SDS_P1;SDS_P2;PMS_P1;PMS_P2;Temp;Humidity;BMP_temperature;BMP_pressure;BME280_temperature;BME280_humidity;BME280_pressure;Samples;Min_cycle;Max_cycle;Signal;HPM_P1;HPM_P2
2023/04/26 00:00:38;;;;;;;;;;;;;;;;;;4921552;29;19920;-81
2023/04/26 00:03:06;;;;;;;;;;;;;;;;;;4890338;29;20264;-81
2023/04/26 00:05:32;;;;;;;;;;;;;;;;;;4905573;29;19998;-80
2023/04/26 00:07:58;;;;;;;;;;;;;;;;;;4905051;29;19954;-80
2023/04/26 00:10:23;;;;;;;;;;;;;;;;;;4904989;29;19916;-80
2023/04/26 00:12:49;;;;;;;;;;;;;;;;;;4904251;29;19916;-81
2023/04/26 00:15:14;;;;;;;;;;;;;;;;;;4917298;29;19950;-81
2023/04/26 00:17:41;;;;;;;;;;;;;;;;;;4924637;29;20010;-81
2023/04/26 00:20:10;;;;;;;;;;;;;;;;;;4923596;29;19918;-80
2023/04/26 00:22:35;;;;;;;;;;;;;;;;;;4924902;29;20010;-80
2023/04/26 00:25:01;;;;;;;;;;;;;;;;;;4923385;29;19915;-81
2023/04/26 00:27:26;;;;;;;;;;;;;;;;;;4923368;29;19926;-80
2023/04/26 00:29:52;;;;;;;;;;;;;;;;;;4907756;29;19915;-80
2023/04/26 00:32:17;;;;;;;;;;;;;;;;;;4914175;29;20344;-80
2023/04/26 00:34:43;;;;;;;;;;;;;;;;;;4918673;29;19915;-80
2023/04/26 00:37:08;;;;;;;;;;;;;;;;;;4925383;29;20006;-81
2023/04/26 00:39:34;;;;;;;;;;;;;;;;;;4925488;29;19926;-81
2023/04/26 00:41:59;;;;;;;;;;;;;;;;;;4924259;29;19967;-81
2023/04/26 00:44:24;;;;;;;;;;;;;;;;;;4924515;29;19922;-80
2023/04/26 00:46:50;;;;;;;;;;;;;;;;;;4902113;29;19926;-81
2023/04/26 00:49:15;;;;;;;;;;;;;;;;;;4904170;29;19915;-81
2023/04/26 00:51:41;;;;;;;;;;;;;;;;;;4919753;29;19915;-82
2023/04/26 00:54:07;;;;;;;;;;;;;;;;;;4912348;29;19919;-81
2023/04/26 00:56:32;;;;;;;;;;;;;;;;;;4926095;29;19915;-80
2023/04/26 00:58:58;;;;;;;;;;;;;;;;;;4920541;29;19979;-81
2023/04/26 01:01:23;;;;;;;;;;;;;;;;;;4904607;29;19990;-83
2023/04/26 01:03:49;;;;;;;;;;;;;;;;;;4913881;29;19951;-82
2023/04/26 01:06:14;;;;;;;;;;;;;;;;;;4923054;29;19915;-81
2023/04/26 01:08:40;;;;;;;;;;;;;;;;;;4891295;29;20432;-82
2023/04/26 01:11:06;;;;;;;;;;;;;;;;;;4926324;29;19966;-82
2023/04/26 01:13:31;;;;;;;;;;;;;;;;;;4926622;29;19922;-82
2023/04/26 01:15:57;;;;;;;;;;;;;;;;;;4910419;29;19919;-81
2023/04/26 01:18:22;;;;;;;;;;;;;;;;;;4923822;29;19915;-81
2023/04/26 01:20:50;;;;;;;;;;;;;;;;;;4889836;29;19919;-81
2023/04/26 01:23:16;;;;;;;;;;;;;;;;;;4904778;29;19981;-81
2023/04/26 01:25:41;;;;;;;;;;;;;;;;;;4912899;29;19916;-80
2023/04/26 01:28:07;;;;;;;;;;;;;;;;;;4912877;29;19942;-82
2023/04/26 01:30:32;;;;;;;;;;;;;;;;;;4886515;29;19939;-81
2023/04/26 01:33:01;;;;;;;;;;;;;;;;;;4920091;29;19915;-82
2023/04/26 01:35:27;;;;;;;;;;;;;;;;;;4890989;29;20008;-81
2023/04/26 01:37:52;;;;;;;;;;;;;;;;;;4921053;29;19974;-81
2023/04/26 01:40:17;;;;;;;;;;;;;;;;;;4963432;23;19926;-88
2023/04/26 01:42:43;;;;;;;;;;;;;;;;;;4932067;29;20015;-88
2023/04/26 01:45:08;;;;;;;;;;;;;;;;;;4935707;29;19922;-87
2023/04/26 01:47:52;;;;;;;;;;;;;;;;;;4948955;29;19946;-85
2023/04/26 01:50:18;;;;;;;;;;;;;;;;;;4920122;29;19971;-89
2023/04/26 01:52:44;;;;;;;;;;;;;;;;;;4934471;29;19915;-85
2023/04/26 01:55:10;;;;;;;;;;;;;;;;;;4901418;29;20283;-87
2023/04/26 01:57:35;;;;;;;;;;;;;;;;;;4918265;29;19923;-86
2023/04/26 02:00:01;;;;;;;;;;;;;;;;;;4917512;29;19922;-85
2023/04/26 02:02:39;;;;;;;;;;;;;;;;;;4935514;29;19915;-86
2023/04/26 02:05:05;;;;;;;;;;;;;;;;;;4919712;29;19926;-89
2023/04/26 02:07:30;;;;;;;;;;;;;;;;;;4919340;29;19962;-84
2023/04/26 02:09:56;;;;;;;;;;;;;;;;;;4935776;29;19915;-88
2023/04/26 02:12:22;;;;;;;;;;;;;;;;;;4921330;29;19915;-84
2023/04/26 02:14:47;;;;;;;;;;;;;;;;;;4934530;29;19914;-90
2023/04/26 02:17:13;;;;;;;;;;;;;;;;;;4931796;29;19915;-89
2023/04/26 02:19:39;;;;;;;;;;;;;;;;;;4935452;29;19958;-89
2023/04/26 02:22:05;;;;;;;;;;;;;;;;;;4920515;29;19953;-86
2023/04/26 02:24:31;;;;;;;;;;;;;;;;;;4936295;29;19922;-88
2023/04/26 02:27:02;;;;;;;;;;;;;;;;;;4905570;29;19915;-90
2023/04/26 02:29:27;;;;;;;;;;;;;;;;;;4936578;29;19915;-88
2023/04/26 02:31:53;;;;;;;;;;;;;;;;;;4934544;29;19922;-86
2023/04/26 02:34:18;;;;;;;;;;;;;;;;;;4936558;29;19958;-86
2023/04/26 02:36:45;;;;;;;;;;;;;;;;;;4936988;29;19915;-85
2023/04/26 02:39:11;;;;;;;;;;;;;;;;;;4938162;29;19918;-88
2023/04/26 02:41:36;;;;;;;;;;;;;;;;;;4936942;29;19915;-89
2023/04/26 02:44:02;;;;;;;;;;;;;;;;;;4937328;29;19914;-91
2023/04/26 02:46:27;;;;;;;;;;;;;;;;;;4921106;29;19921;-89
2023/04/26 02:48:53;;;;;;;;;;;;;;;;;;4932293;29;19994;-88
2023/04/26 02:51:18;;;;;;;;;;;;;;;;;;4935975;29;19919;-88
2023/04/26 02:53:44;;;;;;;;;;;;;;;;;;4936065;29;20237;-90
2023/04/26 02:56:10;;;;;;;;;;;;;;;;;;4936128;29;19915;-91
2023/04/26 02:58:35;;;;;;;;;;;;;;;;;;4921235;29;19915;-90
2023/04/26 03:01:02;;;;;;;;;;;;;;;;;;4905742;29;19923;-87
2023/04/26 03:03:29;;;;;;;;;;;;;;;;;;4936812;29;20387;-88
2023/04/26 03:05:55;;;;;;;;;;;;;;;;;;4900660;29;19922;-92
2023/04/26 03:08:20;;;;;;;;;;;;;;;;;;4902681;29;20010;-88
2023/04/26 03:10:46;;;;;;;;;;;;;;;;;;4917195;29;19915;-87
2023/04/26 03:13:11;;;;;;;;;;;;;;;;;;4902354;29;19931;-90
2023/04/26 03:15:37;;;;;;;;;;;;;;;;;;4901288;29;19919;-86
2023/04/26 03:18:02;;;;;;;;;;;;;;;;;;4917470;29;20347;-88
2023/04/26 03:20:28;;;;;;;;;;;;;;;;;;4901368;29;19920;-88
2023/04/26 03:22:53;;;;;;;;;;;;;;;;;;4932254;29;20338;-89
2023/04/26 03:25:19;;;;;;;;;;;;;;;;;;4920746;29;19946;-90
2023/04/26 03:27:44;;;;;;;;;;;;;;;;;;4923317;29;19930;-89
2023/04/26 03:30:10;;;;;;;;;;;;;;;;;;4936597;29;20290;-89
2023/04/26 03:32:37;;;;;;;;;;;;;;;;;;4904588;29;20433;-85
2023/04/26 03:35:03;;;;;;;;;;;;;;;;;;4921125;29;19919;-88
2023/04/26 03:37:31;;;;;;;;;;;;;;;;;;4917014;29;21649;-87
2023/04/26 03:40:02;;;;;;;;;;;;;;;;;;4907933;29;19930;-87
2023/04/26 03:42:27;;;;;;;;;;;;;;;;;;4917178;29;19915;-88
2023/04/26 03:44:53;;;;;;;;;;;;;;;;;;4902045;29;19923;-90
2023/04/26 03:47:21;;;;;;;;;;;;;;;;;;4900927;29;19970;-87
2023/04/26 03:49:46;;;;;;;;;;;;;;;;;;4927859;29;20366;-89
2023/04/26 03:52:12;;;;;;;;;;;;;;;;;;4902748;29;19915;-89
2023/04/26 03:54:38;;;;;;;;;;;;;;;;;;4931391;29;19915;-91
2023/04/26 03:57:06;;;;;;;;;;;;;;;;;;4920785;29;19915;-92
2023/04/26 03:59:32;;;;;;;;;;;;;;;;;;4908006;29;20304;-85
2023/04/26 04:01:58;;;;;;;;;;;;;;;;;;4945816;29;20013;-87
2023/04/26 04:04:23;;;;;;;;;;;;;;;;;;4918111;29;19915;-88
2023/04/26 04:06:49;;;;;;;;;;;;;;;;;;4929702;29;20363;-83
2023/04/26 04:09:16;;;;;;;;;;;;;;;;;;4928768;29;19953;-91
2023/04/26 04:11:41;;;;;;;;;;;;;;;;;;4924867;29;20310;-93
2023/04/26 04:14:07;;;;;;;;;;;;;;;;;;4907285;29;20271;-89
2023/04/26 04:16:33;;;;;;;;;;;;;;;;;;4906797;29;20263;-89
2023/04/26 04:18:58;;;;;;;;;;;;;;;;;;4921736;29;20395;-91
2023/04/26 04:21:24;;;;;;;;;;;;;;;;;;4939793;29;19921;-89
2023/04/26 04:23:50;;;;;;;;;;;;;;;;;;4941046;29;19914;-90
2023/04/26 04:26:16;;;;;;;;;;;;;;;;;;4922927;29;19968;-90
2023/04/26 04:28:41;;;;;;;;;;;;;;;;;;4935989;29;20318;-89
2023/04/26 04:31:10;;;;;;;;;;;;;;;;;;4907101;29;19915;-89
2023/04/26 04:33:36;;;;;;;;;;;;;;;;;;4921972;29;20343;-90
2023/04/26 04:36:02;;;;;;;;;;;;;;;;;;4937463;29;20009;-93
2023/04/26 04:38:28;;;;;;;;;;;;;;;;;;4922846;29;19914;-86
2023/04/26 04:40:53;;;;;;;;;;;;;;;;;;4922455;29;20387;-87
2023/04/26 04:43:20;;;;;;;;;;;;;;;;;;4922511;29;19914;-91
2023/04/26 04:45:48;;;;;;;;;;;;;;;;;;4921715;29;19941;-90
2023/04/26 04:48:13;;;;;;;;;;;;;;;;;;4894585;29;19922;-85
2023/04/26 04:50:40;;;;;;;;;;;;;;;;;;4921683;29;19915;-88
2023/04/26 04:53:07;;;;;;;;;;;;;;;;;;4903614;29;19922;-90
2023/04/26 04:55:33;;;;;;;;;;;;;;;;;;4905412;29;20009;-88
2023/04/26 04:58:00;;;;;;;;;;;;;;;;;;4887506;29;19951;-88
2023/04/26 05:00:27;;;;;;;;;;;;;;;;;;4902824;29;19919;-90
2023/04/26 05:03:11;;;;;;;;;;;;;;;;;;4890985;29;19918;-90
2023/04/26 05:05:37;;;;;;;;;;;;;;;;;;4902252;29;20375;-90
2023/04/26 05:08:02;;;;;;;;;;;;;;;;;;4918368;29;20026;-90
2023/04/26 05:10:31;;;;;;;;;;;;;;;;;;4918148;29;19915;-89
2023/04/26 05:12:56;;;;;;;;;;;;;;;;;;4889033;29;20446;-83
2023/04/26 05:15:22;;;;;;;;;;;;;;;;;;4918543;29;19915;-90
2023/04/26 05:17:48;;;;;;;;;;;;;;;;;;4886496;29;19915;-90
2023/04/26 05:20:20;;;;;;;;;;;;;;;;;;4927084;29;19942;-90
2023/04/26 05:22:45;;;;;;;;;;;;;;;;;;4921715;29;19922;-90
2023/04/26 05:25:12;;;;;;;;;;;;;;;;;;4904758;29;19918;-90
2023/04/26 05:27:38;;;;;;;;;;;;;;;;;;4921151;29;20016;-92
2023/04/26 05:30:27;;;;;;;;;;;;;;;;;;4924785;29;19915;-88
2023/04/26 05:33:11;;;;;;;;;;;;;;;;;;4938206;29;19915;-91
2023/04/26 05:35:46;;;;;;;;;;;;;;;;;;4922597;29;19922;-89
2023/04/26 05:38:11;;;;;;;;;;;;;;;;;;4917421;29;19914;-91
2023/04/26 05:40:37;;;;;;;;;;;;;;;;;;4920713;29;20005;-88
2023/04/26 05:43:03;;;;;;;;;;;;;;;;;;4936321;29;19911;-92
2023/04/26 05:45:29;;;;;;;;;;;;;;;;;;4936089;29;20459;-91
2023/04/26 05:47:55;;;;;;;;;;;;;;;;;;4936380;29;19942;-91
2023/04/26 05:50:21;;;;;;;;;;;;;;;;;;4935881;29;19938;-88
2023/04/26 05:52:46;;;;;;;;;;;;;;;;;;4905205;29;20331;-90
2023/04/26 05:55:12;;;;;;;;;;;;;;;;;;4899983;29;19915;-90
2023/04/26 05:57:38;;;;;;;;;;;;;;;;;;4936269;29;19914;-88
2023/04/26 06:00:05;;;;;;;;;;;;;;;;;;4935207;29;19919;-92
2023/04/26 06:02:39;;;;;;;;;;;;;;;;;;4935862;29;19915;-90
2023/04/26 06:05:07;;;;;;;;;;;;;;;;;;4904441;29;19919;-90
2023/04/26 06:07:32;;;;;;;;;;;;;;;;;;4903713;29;19950;-93
2023/04/26 06:09:58;;;;;;;;;;;;;;;;;;4920261;29;19926;-90
2023/04/26 06:12:24;;;;;;;;;;;;;;;;;;4904980;29;19915;-90
2023/04/26 06:14:50;;;;;;;;;;;;;;;;;;4932821;29;19910;-93
2023/04/26 06:17:20;;;;;;;;;;;;;;;;;;4936468;29;19990;-90
2023/04/26 06:19:45;;;;;;;;;;;;;;;;;;4937047;29;20449;-89
2023/04/26 06:22:11;;;;;;;;;;;;;;;;;;4938720;29;19919;-91
2023/04/26 06:24:37;;;;;;;;;;;;;;;;;;4921969;29;20363;-91
2023/04/26 06:27:02;;;;;;;;;;;;;;;;;;4921280;29;19970;-90
2023/04/26 06:29:32;;;;;;;;;;;;;;;;;;4937350;29;19938;-91
2023/04/26 06:31:57;;;;;;;;;;;;;;;;;;4932143;29;19915;-89
2023/04/26 06:34:24;;;;;;;;;;;;;;;;;;4916385;29;19915;-91
2023/04/26 06:36:50;;;;;;;;;;;;;;;;;;4907290;29;19915;-92
2023/04/26 06:39:17;;;;;;;;;;;;;;;;;;4909157;29;19923;-91
2023/04/26 06:41:42;;;;;;;;;;;;;;;;;;4922041;29;19915;-91
2023/04/26 06:44:09;;;;;;;;;;;;;;;;;;4914635;29;20375;-91
2023/04/26 06:46:39;;;;;;;;;;;;;;;;;;4922338;29;19915;-92
2023/04/26 06:49:06;;;;;;;;;;;;;;;;;;4889600;29;19915;-91
2023/04/26 06:51:32;;;;;;;;;;;;;;;;;;4920508;29;20361;-91
2023/04/26 06:54:00;;;;;;;;;;;;;;;;;;4928219;29;20010;-90
2023/04/26 06:56:26;;;;;;;;;;;;;;;;;;4928341;29;19915;-90
2023/04/26 06:58:52;;;;;;;;;;;;;;;;;;4922899;29;19915;-89
2023/04/26 07:01:18;;;;;;;;;;;;;;;;;;4908183;29;19923;-90
2023/04/26 07:03:43;;;;;;;;;;;;;;;;;;4913322;29;19977;-92
2023/04/26 07:06:09;;;;;;;;;;;;;;;;;;4926182;29;20302;-89
2023/04/26 07:08:35;;;;;;;;;;;;;;;;;;4923476;29;19915;-91
2023/04/26 07:11:00;;;;;;;;;;;;;;;;;;4933396;29;19915;-90
2023/04/26 07:13:26;;;;;;;;;;;;;;;;;;4889299;29;20290;-90
2023/04/26 07:15:51;;;;;;;;;;;;;;;;;;4912105;29;20404;-90
2023/04/26 07:18:17;;;;;;;;;;;;;;;;;;4897480;29;20330;-90
2023/04/26 07:20:42;;;;;;;;;;;;;;;;;;4922978;29;20326;-90
2023/04/26 07:23:08;;;;;;;;;;;;;;;;;;4920706;29;19915;-91
2023/04/26 07:25:33;;;;;;;;;;;;;;;;;;4937928;29;20370;-91
2023/04/26 07:27:58;;;;;;;;;;;;;;;;;;4923324;29;19921;-92
2023/04/26 07:30:24;;;;;;;;;;;;;;;;;;4923647;29;19914;-92
2023/04/26 07:32:51;;;;;;;;;;;;;;;;;;4936559;29;19947;-91
2023/04/26 07:35:17;;;;;;;;;;;;;;;;;;4904841;29;20391;-91
2023/04/26 07:37:42;;;;;;;;;;;;;;;;;;4907176;29;20030;-92
2023/04/26 07:48:14;;;;;;;;;;;;;;;;;;5549454;23;19919;-87
2023/04/26 08:18:34;;;;;;;;;;;;;;;;;;5074374;23;19942;-86
2023/04/26 08:21:03;;;;;;;;;;;;;;;;;;4927549;29;19936;-87
2023/04/26 09:34:51;;;;;;;;;;;;;;;;;;5947751;23;20022;-83
2023/04/26 09:43:17;;;;;;;;;;;;;;;;;;5804188;23;19987;-85
2023/04/26 09:45:55;;;;;;;;;;;;;;;;;;4910057;29;19919;-82
2023/04/26 09:48:25;;;;;;;;;;;;;;;;;;5558858;23;19934;-84
2023/04/26 09:50:57;;;;;;;;;;;;;;;;;;4904575;29;19970;-84
2023/04/26 09:56:22;;;;;;;;;;;;;;;;;;4880219;29;19913;-85
2023/04/26 10:01:41;;;;;;;;;;;;;;;;;;4921004;29;19951;-85
2023/04/26 10:04:13;;;;;;;;;;;;;;;;;;4922313;29;19911;-84
2023/04/26 10:06:46;;;;;;;;;;;;;;;;;;4935984;29;19915;-84
2023/04/26 10:09:15;;;;;;;;;;;;;;;;;;4917589;29;20035;-84
2023/04/26 10:14:27;;;;;;;;;;;;;;;;;;5000320;23;19927;-84
2023/04/26 10:16:56;;;;;;;;;;;;;;;;;;4909121;29;19903;-83
2023/04/26 10:19:25;;;;;;;;;;;;;;;;;;4906548;29;19939;-84
2023/04/26 10:22:03;;;;;;;;;;;;;;;;;;4891850;29;19919;-83
2023/04/26 10:24:38;;;;;;;;;;;;;;;;;;4906409;29;19919;-84
2023/04/26 10:27:13;;;;;;;;;;;;;;;;;;4921363;29;19915;-84
2023/04/26 10:29:42;;;;;;;;;;;;;;;;;;4905221;29;19903;-84
2023/04/26 10:32:15;;;;;;;;;;;;;;;;;;4904222;29;19916;-83
2023/04/26 10:34:41;;;;;;;;;;;;;;;;;;4902723;29;19995;-82
2023/04/26 10:37:13;;;;;;;;;;;;;;;;;;4903213;29;19904;-83
2023/04/26 10:39:45;;;;;;;;;;;;;;;;;;4904783;29;19927;-84
2023/04/26 10:42:26;;;;;;;;;;;;;;;;;;4904652;29;19915;-84
2023/04/26 10:44:52;;;;;;;;;;;;;;;;;;4918399;29;19919;-83
2023/04/26 10:47:28;;;;;;;;;;;;;;;;;;4906369;29;19970;-84
2023/04/26 10:49:57;;;;;;;;;;;;;;;;;;4919437;29;19988;-83
2023/04/26 10:52:26;;;;;;;;;;;;;;;;;;4919259;29;20399;-83
2023/04/26 10:54:53;;;;;;;;;;;;;;;;;;4918996;29;19908;-84
2023/04/26 10:57:22;;;;;;;;;;;;;;;;;;4917424;29;19923;-84
2023/04/26 10:59:49;;;;;;;;;;;;;;;;;;4916801;29;19992;-82
2023/04/26 11:02:35;;;;;;;;;;;;;;;;;;;;;
2023/04/26 11:05:03;;;;;;;;;;;;;;;;;;4916504;29;19922;-83
2023/04/26 11:07:29;;;;;;;;;;;;;;;;;;4887151;29;19919;-82
2023/04/26 11:09:59;;;;;;;;;;;;;;;;;;4901758;29;19923;-84
2023/04/26 11:12:32;;;;;;;;;;;;;;;;;;4902786;29;19916;-83
2023/04/26 11:14:59;;;;;;;;;;;;;;;;;;4903407;29;19914;-83
2023/04/26 11:17:28;;;;;;;;;;;;;;;;;;4903634;29;19936;-84
2023/04/26 11:19:55;;;;;;;;;;;;;;;;;;4904160;29;19904;-84
2023/04/26 11:22:28;;;;;;;;;;;;;;;;;;4891642;29;19919;-84
2023/04/26 11:25:21;;;;;;;;;;;;;;;;;;4908943;29;19908;-84
2023/04/26 11:28:00;;;;;;;;;;;;;;;;;;4891531;29;19951;-84
2023/04/26 11:30:44;;;;;;;;;;;;;;;;;;4891000;29;19911;-84
2023/04/26 11:33:21;;;;;;;;;;;;;;;;;;4907270;29;19988;-84
2023/04/26 11:36:07;;;;;;;;;;;;;;;;;;4904566;29;19903;-85
2023/04/26 11:38:52;;;;;;;;;;;;;;;;;;4923685;29;19915;-85
2023/04/26 11:41:20;;;;;;;;;;;;;;;;;;4908543;29;19912;-85
2023/04/26 11:43:57;;;;;;;;;;;;;;;;;;4895019;29;19903;-83
2023/04/26 11:51:53;;;;;;;;;;;;;;;;;;5347573;23;19911;-85
2023/04/26 12:05:16;;;;;;;;;;;;;;;;;;5075439;23;19927;-80
2023/04/26 12:07:42;;;;;;;;;;;;;;;;;;4910343;29;19922;-80
2023/04/26 12:10:08;;;;;;;;;;;;;;;;;;4911430;29;19912;-81
2023/04/26 12:12:34;;;;;;;;;;;;;;;;;;4877551;29;19915;-80
2023/04/26 12:15:00;;;;;;;;;;;;;;;;;;4896822;29;19920;-78
2023/04/26 12:17:25;;;;;;;;;;;;;;;;;;4902650;29;19939;-76
2023/04/26 12:19:51;;;;;;;;;;;;;;;;;;4883417;29;19928;-79
2023/04/26 12:22:16;;;;;;;;;;;;;;;;;;4899817;29;19916;-78
2023/04/26 12:24:43;;;;;;;;;;;;;;;;;;4902520;29;19916;-77
2023/04/26 12:27:09;;;;;;;;;;;;;;;;;;4887396;29;19916;-76
2023/04/26 12:29:34;;;;;;;;;;;;;;;;;;4903063;29;19915;-78
2023/04/26 12:32:00;;;;;;;;;;;;;;;;;;4903344;29;19943;-76
2023/04/26 12:34:26;;;;;;;;;;;;;;;;;;4889077;29;19916;-77
2023/04/26 12:36:52;;;;;;;;;;;;;;;;;;4904297;29;19951;-77
2023/04/26 12:39:20;;;;;;;;;;;;;;;;;;4869807;29;19923;-77
2023/04/26 12:41:46;;;;;;;;;;;;;;;;;;4891731;29;19912;-81
2023/04/26 12:44:18;;;;;;;;;;;;;;;;;;4900433;29;19923;-82
2023/04/26 12:46:47;;;;;;;;;;;;;;;;;;4917652;29;19916;-82
2023/04/26 12:49:16;;;;;;;;;;;;;;;;;;4871959;29;19944;-83
2023/04/26 12:51:59;;;;;;;;;;;;;;;;;;4888544;29;19983;-82
2023/04/26 12:54:32;;;;;;;;;;;;;;;;;;4902407;29;19925;-83
2023/04/26 12:56:58;;;;;;;;;;;;;;;;;;4922235;29;19920;-85
2023/04/26 12:59:32;;;;;;;;;;;;;;;;;;4907990;29;19903;-84
2023/04/26 13:02:02;;;;;;;;;;;;;;;;;;4906858;29;19951;-85
2023/04/26 13:04:28;;;;;;;;;;;;;;;;;;4907190;29;19919;-85
2023/04/26 13:07:06;;;;;;;;;;;;;;;;;;4907991;29;19907;-83
2023/04/26 13:12:17;;;;;;;;;;;;;;;;;;4997336;23;19930;-85
2023/04/26 13:14:48;;;;;;;;;;;;;;;;;;5015265;23;19912;-84
2023/04/26 13:17:35;;;;;;;;;;;;;;;;;;4909176;29;19994;-85
2023/04/26 13:20:09;;;;;;;;;;;;;;;;;;4900643;29;19936;-85
2023/04/26 13:22:42;;;;;;;;;;;;;;;;;;4908574;29;19926;-84
2023/04/26 13:25:21;;;;;;;;;;;;;;;;;;4924946;29;19922;-84
2023/04/26 13:33:23;;;;;;;;;;;;;;;;;;4919749;29;19923;-85
2023/04/26 13:35:52;;;;;;;;;;;;;;;;;;4891421;29;19975;-85
2023/04/26 13:38:41;;;;;;;;;;;;;;;;;;5313889;23;19934;-84
2023/04/26 13:41:43;;;;;;;;;;;;;;;;;;4925036;29;19927;-89
2023/04/26 13:44:09;;;;;;;;;;;;;;;;;;4890780;29;20021;-90
2023/04/26 13:46:37;;;;;;;;;;;;;;;;;;4919616;29;19922;-93
2023/04/26 13:49:02;;;;;;;;;;;;;;;;;;4914459;29;19916;-90
2023/04/26 13:51:29;;;;;;;;;;;;;;;;;;4915810;29;19922;-79
2023/04/26 13:54:01;;;;;;;;;;;;;;;;;;5151132;27;19967;-78
2023/04/26 13:56:27;;;;;;;;;;;;;;;;;;5151114;27;19962;-80
2023/04/26 13:58:52;;;;;;;;;;;;;;;;;;5143866;27;20323;-80
2023/04/26 14:01:18;;;;;;;;;;;;;;;;;;5149237;27;19912;-82
2023/04/26 14:03:43;;;;;;;;;;;;;;;;;;5151679;27;19919;-80
2023/04/26 14:06:09;;;;;;;;;;;;;;;;;;5134126;27;19958;-83
2023/04/26 14:08:35;;;;;;;;;;;;;;;;;;5152369;27;19935;-86
2023/04/26 14:11:00;;;;;;;;;;;;;;;;;;5151072;27;19911;-85
2023/04/26 14:13:26;;;;;;;;;;;;;;;;;;5149083;27;20378;-86
2023/04/26 14:15:51;;;;;;;;;;;;;;;;;;5132564;27;20263;-87
2023/04/26 14:18:16;;;;;;;;;;;;;;;;;;5150743;27;20122;-87
2023/04/26 14:20:42;;;;;;;;;;;;;;;;;;5161651;27;19912;-85
2023/04/26 14:23:07;;;;;;;;;;;;;;;;;;5147680;27;19912;-87
2023/04/26 14:25:33;;;;;;;;;;;;;;;;;;5160839;27;20404;-86
2023/04/26 14:27:58;;;;;;;;;;;;;;;;;;5162801;27;19912;-83
2023/04/26 14:30:24;;;;;;;;;;;;;;;;;;5157921;27;19931;-88
2023/04/26 14:32:49;;;;;;;;;;;;;;;;;;5151291;27;20068;-89
2023/04/26 14:35:14;;;;;;;;;;;;;;;;;;5151580;27;19911;-88
2023/04/26 14:37:40;;;;;;;;;;;;;;;;;;5149880;27;19911;-87
2023/04/26 14:40:06;;;;;;;;;;;;;;;;;;5151390;27;19911;-87
2023/04/26 14:42:32;;;;;;;;;;;;;;;;;;5132562;27;20405;-87
2023/04/26 14:44:57;;;;;;;;;;;;;;;;;;5132534;27;19912;-88
2023/04/26 14:47:22;;;;;;;;;;;;;;;;;;5149470;27;19923;-87
2023/04/26 14:49:48;;;;;;;;;;;;;;;;;;5150832;27;19911;-88
2023/04/26 14:52:13;;;;;;;;;;;;;;;;;;5149373;27;19923;-87
2023/04/26 14:54:39;;;;;;;;;;;;;;;;;;5149800;27;19916;-88
2023/04/26 14:57:04;;;;;;;;;;;;;;;;;;5149478;27;19918;-87
2023/04/26 14:59:30;;;;;;;;;;;;;;;;;;5149269;27;19911;-87
2023/04/26 15:01:56;;;;;;;;;;;;;;;;;;5133269;27;19919;-87
2023/04/26 15:04:21;;;;;;;;;;;;;;;;;;5142449;27;19911;-87
2023/04/26 15:06:46;;;;;;;;;;;;;;;;;;5135768;27;19911;-87
2023/04/26 15:09:12;;;;;;;;;;;;;;;;;;5135611;27;19923;-86
2023/04/26 15:11:37;;;;;;;;;;;;;;;;;;5135544;27;19918;-88
2023/04/26 15:14:03;;;;;;;;;;;;;;;;;;5118643;27;19915;-87
2023/04/26 15:16:28;;;;;;;;;;;;;;;;;;5119262;27;19911;-88
2023/04/26 15:18:54;;;;;;;;;;;;;;;;;;5118513;27;19969;-87
2023/04/26 15:21:19;;;;;;;;;;;;;;;;;;5136373;27;20431;-87
2023/04/26 15:23:45;;;;;;;;;;;;;;;;;;5136752;27;19923;-87
2023/04/26 15:26:10;;;;;;;;;;;;;;;;;;5101287;27;20300;-87
2023/04/26 15:28:36;;;;;;;;;;;;;;;;;;5101776;27;19935;-87
2023/04/26 15:31:01;;;;;;;;;;;;;;;;;;5119065;27;19918;-86
2023/04/26 15:33:27;;;;;;;;;;;;;;;;;;5136385;27;19922;-87
2023/04/26 15:35:52;;;;;;;;;;;;;;;;;;5102819;27;19918;-88
2023/04/26 15:38:18;;;;;;;;;;;;;;;;;;5141523;27;19911;-86
2023/04/26 15:40:43;;;;;;;;;;;;;;;;;;5103414;27;20311;-86
2023/04/26 15:43:09;;;;;;;;;;;;;;;;;;5121176;27;20388;-84
2023/04/26 15:45:35;;;;;;;;;;;;;;;;;;5140451;27;19915;-86
2023/04/26 15:48:00;;;;;;;;;;;;;;;;;;5146681;27;19923;-84
2023/04/26 15:50:26;;;;;;;;;;;;;;;;;;5132757;27;20384;-87
2023/04/26 15:52:51;;;;;;;;;;;;;;;;;;5146141;27;19959;-87
2023/04/26 15:55:17;;;;;;;;;;;;;;;;;;5150917;27;19917;-87
2023/04/26 15:57:42;;;;;;;;;;;;;;;;;;5148208;27;20009;-85
2023/04/26 16:00:11;;;;;;;;;;;;;;;;;;5154023;27;19902;-84
2023/04/26 16:02:37;;;;;;;;;;;;;;;;;;5158002;27;19975;-82
2023/04/26 16:05:06;;;;;;;;;;;;;;;;;;5122530;27;20319;-89
2023/04/26 16:07:37;;;;;;;;;;;;;;;;;;5131907;27;20367;-85
2023/04/26 16:10:08;;;;;;;;;;;;;;;;;;5138458;27;19919;-88
2023/04/26 16:12:35;;;;;;;;;;;;;;;;;;5123870;27;20347;-88
2023/04/26 16:15:03;;;;;;;;;;;;;;;;;;5137619;27;19912;-88
2023/04/26 16:17:31;;;;;;;;;;;;;;;;;;5137986;27;20400;-89
2023/04/26 16:19:57;;;;;;;;;;;;;;;;;;5140565;27;19922;-89
2023/04/26 16:22:23;;;;;;;;;;;;;;;;;;5124326;27;19912;-89
2023/04/26 16:24:58;;;;;;;;;;;;;;;;;;5140207;27;19911;-90
2023/04/26 16:27:27;;;;;;;;;;;;;;;;;;5142454;27;20447;-89
2023/04/26 16:30:00;;;;;;;;;;;;;;;;;;5109113;27;20433;-87
2023/04/26 16:32:38;;;;;;;;;;;;;;;;;;5139516;27;19923;-88
2023/04/26 16:35:03;;;;;;;;;;;;;;;;;;5121443;27;20023;-89
2023/04/26 16:37:29;;;;;;;;;;;;;;;;;;5107225;27;20266;-88
2023/04/26 16:39:55;;;;;;;;;;;;;;;;;;5137623;27;20023;-89
2023/04/26 16:42:20;;;;;;;;;;;;;;;;;;5111852;27;19940;-89
2023/04/26 16:44:58;;;;;;;;;;;;;;;;;;5134315;27;20190;-90
2023/04/26 16:47:32;;;;;;;;;;;;;;;;;;5113350;27;19911;-89
2023/04/26 16:52:35;;;;;;;;;;;;;;;;;;5153049;27;19983;-92
2023/04/26 16:55:17;;;;;;;;;;;;;;;;;;5119822;27;19912;-89
2023/04/26 16:58:02;;;;;;;;;;;;;;;;;;5133483;27;19918;-87
2023/04/26 17:00:30;;;;;;;;;;;;;;;;;;5112198;27;20005;-88
2023/04/26 17:02:58;;;;;;;;;;;;;;;;;;5126480;27;19943;-89
2023/04/26 17:05:28;;;;;;;;;;;;;;;;;;5145469;27;19915;-88
2023/04/26 17:07:54;;;;;;;;;;;;;;;;;;5143797;27;19915;-88
2023/04/26 17:10:20;;;;;;;;;;;;;;;;;;5142775;27;19912;-89
2023/04/26 17:12:45;;;;;;;;;;;;;;;;;;5130259;27;20248;-86
2023/04/26 17:15:14;;;;;;;;;;;;;;;;;;5146916;27;19911;-87
2023/04/26 17:17:40;;;;;;;;;;;;;;;;;;5149183;27;19918;-85
2023/04/26 17:20:08;;;;;;;;;;;;;;;;;;5136471;27;19911;-85
2023/04/26 17:22:37;;;;;;;;;;;;;;;;;;5138422;27;19907;-83
2023/04/26 17:25:08;;;;;;;;;;;;;;;;;;5137106;27;19915;-85
2023/04/26 17:27:33;;;;;;;;;;;;;;;;;;5118093;27;19916;-83
2023/04/26 17:29:59;;;;;;;;;;;;;;;;;;5153504;27;19963;-83
2023/04/26 17:32:25;;;;;;;;;;;;;;;;;;5117963;27;19919;-85
2023/04/26 17:34:50;;;;;;;;;;;;;;;;;;5106648;27;19915;-87
2023/04/26 17:37:16;;;;;;;;;;;;;;;;;;5135662;27;19911;-89
2023/04/26 17:39:41;;;;;;;;;;;;;;;;;;5119696;28;19911;-87
2023/04/26 17:42:07;;;;;;;;;;;;;;;;;;5137165;27;19947;-88
2023/04/26 17:44:33;;;;;;;;;;;;;;;;;;5139820;27;19911;-88
2023/04/26 17:46:58;;;;;;;;;;;;;;;;;;5110219;28;19915;-88
2023/04/26 17:49:27;;;;;;;;;;;;;;;;;;5107208;28;19922;-88
2023/04/26 17:51:56;;;;;;;;;;;;;;;;;;5129137;28;19945;-88
2023/04/26 17:54:21;;;;;;;;;;;;;;;;;;5108225;28;19911;-87
2023/04/26 17:56:47;;;;;;;;;;;;;;;;;;5122649;28;19911;-88
2023/04/26 17:59:12;;;;;;;;;;;;;;;;;;5121022;28;19975;-89
2023/04/26 18:01:38;;;;;;;;;;;;;;;;;;5122210;28;19911;-88
2023/04/26 18:04:03;;;;;;;;;;;;;;;;;;5138072;28;20297;-86
2023/04/26 18:06:30;;;;;;;;;;;;;;;;;;5109271;28;19919;-89
2023/04/26 18:08:55;;;;;;;;;;;;;;;;;;5126651;28;19911;-88
2023/04/26 18:11:21;;;;;;;;;;;;;;;;;;5137668;28;19918;-87
2023/04/26 18:13:47;;;;;;;;;;;;;;;;;;5137001;28;19930;-85
2023/04/26 18:16:15;;;;;;;;;;;;;;;;;;5135484;28;19986;-80
2023/04/26 18:18:41;;;;;;;;;;;;;;;;;;5119052;28;19911;-85
2023/04/26 18:21:06;;;;;;;;;;;;;;;;;;5138869;28;20331;-86
2023/04/26 18:23:31;;;;;;;;;;;;;;;;;;5140049;28;20332;-89
2023/04/26 18:26:00;;;;;;;;;;;;;;;;;;5137421;28;20395;-87
2023/04/26 18:28:25;;;;;;;;;;;;;;;;;;5121197;28;19912;-88
2023/04/26 18:30:51;;;;;;;;;;;;;;;;;;5135027;28;19976;-88
2023/04/26 18:33:16;;;;;;;;;;;;;;;;;;5117664;28;19915;-85
2023/04/26 18:35:42;;;;;;;;;;;;;;;;;;5116998;28;19908;-86
2023/04/26 18:38:07;;;;;;;;;;;;;;;;;;5134455;27;19911;-86
2023/04/26 18:40:33;;;;;;;;;;;;;;;;;;5120900;27;19915;-88
2023/04/26 18:42:58;;;;;;;;;;;;;;;;;;5141236;27;20362;-91
2023/04/26 18:45:24;;;;;;;;;;;;;;;;;;5113974;27;19937;-91
2023/04/26 18:47:50;;;;;;;;;;;;;;;;;;5118750;27;20346;-86
2023/04/26 18:50:15;;;;;;;;;;;;;;;;;;5119188;27;19963;-84
2023/04/26 18:52:41;;;;;;;;;;;;;;;;;;5102682;27;19971;-87
2023/04/26 18:55:06;;;;;;;;;;;;;;;;;;5138362;27;19959;-88
2023/04/26 18:57:32;;;;;;;;;;;;;;;;;;5122274;27;19918;-84
2023/04/26 18:59:58;;;;;;;;;;;;;;;;;;5139847;27;19967;-85
2023/04/26 19:02:23;;;;;;;;;;;;;;;;;;5121632;27;19915;-82
2023/04/26 19:04:49;;;;;;;;;;;;;;;;;;5153356;27;19919;-83
2023/04/26 19:07:14;;;;;;;;;;;;;;;;;;5155295;27;19934;-85
2023/04/26 19:09:40;;;;;;;;;;;;;;;;;;5153600;27;20170;-82
2023/04/26 19:12:07;;;;;;;;;;;;;;;;;;5155993;27;19916;-81
2023/04/26 19:14:32;;;;;;;;;;;;;;;;;;5152712;27;19911;-81
2023/04/26 19:16:58;;;;;;;;;;;;;;;;;;5154461;27;19922;-84